Gorham, North Dakota
Current Conditions -  °F | °C
As of 7:56 AM on Thursday 23 Oct 2014 (Local Time) from KDIK Reporting Station
Clear Clear  
Wind Chill: 35°   Ceiling: Unl
Heat Index: 40°   Visibility: 10mi
Dew Point: 29°   Wind: 7mph
Humidity: 65%   Direction: 240°WSW
Pressure: 29.87"   Gusts: NA
Location:  47.131°N, 103.355°W
Report Text: KDIK 231356Z AUTO 24006KT 10SM CLR 04/M02 A2987 RMK AO2 SLP129 T00441017
Loading
Personal Weather Stations






























Interactive Weather Map
Tropical Storm Tracking
New forecast layout! Learn more

10-Day Weather Forecast

Advertisements
Track Severe Weather on mobile